Time;durP1;ratioP1;P1;durP2;ratioP2;P2;SDS_P1;SDS_P2;PMS_P1;PMS_P2;Temp;Humidity;BMP_temperature;BMP_pressure;BME280_temperature;BME280_humidity;BME280_pressure;Samples;Min_cycle;Max_cycle;Signal;HPM_P1;HPM_P2
2022/08/26 00:01:33;;;;;;;10.45;6.97;;;22.10;92.80;;;;;;5075381;28;20476;-69
2022/08/26 00:03:59;;;;;;;12.88;6.57;;;22.10;92.90;;;;;;5066158;28;20206;-69
2022/08/26 00:06:26;;;;;;;8.27;6.72;;;22.10;93.00;;;;;;5066774;28;20449;-69
2022/08/26 00:08:52;;;;;;;16.73;7.20;;;22.10;93.00;;;;;;5066013;28;20044;-69
2022/08/26 00:11:18;;;;;;;12.70;7.28;;;22.00;93.00;;;;;;5063471;28;20031;-69
2022/08/26 00:13:44;;;;;;;12.60;6.97;;;22.00;93.00;;;;;;5069253;28;20028;-69
2022/08/26 00:16:11;;;;;;;13.25;7.22;;;22.00;93.00;;;;;;5069429;28;20036;-69
2022/08/26 00:18:37;;;;;;;18.83;7.72;;;22.00;93.20;;;;;;5071544;28;20028;-69
2022/08/26 00:21:04;;;;;;;15.52;7.90;;;21.90;93.20;;;;;;5070397;28;20128;-69
2022/08/26 00:23:30;;;;;;;13.32;7.60;;;21.90;93.30;;;;;;5073123;28;20032;-69
2022/08/26 00:25:56;;;;;;;15.23;7.40;;;21.90;93.30;;;;;;5071003;28;20078;-69
2022/08/26 00:28:23;;;;;;;12.13;6.57;;;21.90;93.30;;;;;;5064710;28;20033;-69
2022/08/26 00:30:48;;;;;;;12.98;7.10;;;21.90;93.50;;;;;;5067622;28;20131;-69
2022/08/26 00:33:16;;;;;;;12.80;7.22;;;21.90;93.50;;;;;;5066056;28;20748;-69
2022/08/26 00:35:42;;;;;;;12.45;7.03;;;21.80;93.60;;;;;;5068723;28;20109;-69
2022/08/26 00:38:09;;;;;;;13.77;7.28;;;21.80;93.60;;;;;;5069351;28;20040;-69
2022/08/26 00:40:38;;;;;;;14.02;7.25;;;21.80;93.60;;;;;;5068440;28;20436;-69
2022/08/26 00:43:05;;;;;;;12.18;7.25;;;21.80;93.70;;;;;;5064551;28;20556;-69
2022/08/26 00:45:38;;;;;;;15.73;6.78;;;21.80;93.80;;;;;;5063473;28;20058;-69
2022/08/26 00:48:06;;;;;;;14.48;7.57;;;21.70;94.10;;;;;;5069831;28;20381;-69
2022/08/26 00:50:37;;;;;;;12.50;8.00;;;21.70;94.10;;;;;;5068886;28;20037;-69
2022/08/26 00:53:20;;;;;;;11.27;7.03;;;21.70;94.00;;;;;;5068309;28;20040;-69
2022/08/26 00:55:58;;;;;;;17.83;8.18;;;21.70;94.10;;;;;;5066876;28;20032;-69
2022/08/26 00:58:26;;;;;;;8.93;7.13;;;21.60;94.20;;;;;;5068487;28;20040;-69
2022/08/26 01:00:52;;;;;;;13.98;7.18;;;21.60;94.20;;;;;;5065793;28;20290;-69
2022/08/26 01:03:24;;;;;;;12.85;7.00;;;21.60;94.10;;;;;;5064540;28;20123;-69
2022/08/26 01:05:57;;;;;;;16.20;7.65;;;21.60;94.20;;;;;;5062634;28;20048;-69
2022/08/26 01:08:23;;;;;;;12.95;7.18;;;21.60;94.20;;;;;;5061884;28;20029;-69
2022/08/26 01:10:51;;;;;;;12.32;7.47;;;21.50;94.10;;;;;;5064402;28;20054;-69
2022/08/26 01:13:17;;;;;;;13.65;7.32;;;21.50;94.30;;;;;;5073693;28;20774;-70
2022/08/26 01:15:46;;;;;;;10.55;6.95;;;21.50;94.30;;;;;;5075975;28;20031;-69
2022/08/26 01:18:13;;;;;;;11.10;6.97;;;21.50;94.40;;;;;;5074201;28;20067;-69
2022/08/26 01:21:02;;;;;;;11.27;7.32;;;21.50;94.30;;;;;;5068204;28;20032;-69
2022/08/26 01:23:33;;;;;;;11.23;7.18;;;21.40;94.20;;;;;;5076099;28;20075;-69
2022/08/26 01:26:05;;;;;;;10.73;7.65;;;21.40;94.20;;;;;;5071666;28;20036;-69
2022/08/26 01:28:33;;;;;;;12.05;7.10;;;21.40;94.20;;;;;;5070116;28;20031;-69
2022/08/26 01:31:02;;;;;;;11.32;7.60;;;21.40;94.30;;;;;;5070997;28;20404;-68
2022/08/26 01:33:44;;;;;;;11.32;7.15;;;21.30;94.30;;;;;;5079074;28;20043;-68
2022/08/26 01:36:11;;;;;;;10.65;6.85;;;21.40;94.40;;;;;;5079179;28;20027;-69
2022/08/26 01:38:38;;;;;;;9.75;7.00;;;21.30;94.50;;;;;;5076314;28;20447;-68
2022/08/26 01:41:06;;;;;;;12.82;6.97;;;21.30;94.60;;;;;;5078888;28;20256;-68
2022/08/26 01:43:33;;;;;;;9.18;6.88;;;21.30;94.70;;;;;;5064288;28;20140;-69
2022/08/26 01:46:01;;;;;;;9.95;6.82;;;21.30;94.90;;;;;;5064928;28;20020;-69
2022/08/26 01:48:30;;;;;;;14.10;7.30;;;21.30;95.00;;;;;;5063622;28;20039;-69
2022/08/26 01:50:57;;;;;;;10.73;7.57;;;21.30;95.10;;;;;;5067499;28;20827;-70
2022/08/26 01:53:23;;;;;;;13.23;7.80;;;21.30;95.10;;;;;;5067859;28;20040;-69
2022/08/26 01:55:54;;;;;;;12.23;7.20;;;21.30;95.10;;;;;;5064473;28;20480;-69
2022/08/26 01:58:33;;;;;;;11.13;7.15;;;21.30;95.10;;;;;;5065763;28;20094;-69
2022/08/26 02:00:59;;;;;;;10.77;7.10;;;21.30;95.10;;;;;;5067563;28;20569;-69
2022/08/26 02:03:27;;;;;;;8.75;6.60;;;21.30;95.20;;;;;;5069676;28;20035;-69
2022/08/26 02:05:56;;;;;;;8.98;7.22;;;21.30;95.20;;;;;;5065797;28;20037;-69
2022/08/26 02:08:45;;;;;;;12.60;8.00;;;21.30;95.20;;;;;;5073042;28;20059;-69
2022/08/26 02:11:12;;;;;;;10.27;7.25;;;21.30;95.20;;;;;;5068624;28;20063;-69
2022/08/26 02:13:42;;;;;;;14.23;7.57;;;21.30;95.20;;;;;;5072039;28;20032;-69
2022/08/26 02:16:09;;;;;;;12.70;7.70;;;21.30;95.20;;;;;;5074201;28;20064;-69
2022/08/26 02:18:38;;;;;;;14.57;7.50;;;21.30;95.20;;;;;;5074741;28;20051;-69
2022/08/26 02:21:06;;;;;;;14.85;7.55;;;21.30;95.10;;;;;;5067672;28;20418;-69
2022/08/26 02:23:32;;;;;;;8.07;6.80;;;21.30;95.10;;;;;;5069314;28;20102;-69
2022/08/26 02:26:27;;;;;;;8.32;7.30;;;21.30;95.10;;;;;;5076086;28;20377;-69
2022/08/26 02:29:00;;;;;;;9.55;6.95;;;21.30;95.20;;;;;;5063280;28;20052;-69
2022/08/26 02:31:26;;;;;;;11.07;7.72;;;21.30;95.30;;;;;;5078448;28;20038;-69
2022/08/26 02:33:52;;;;;;;11.60;7.88;;;21.30;95.40;;;;;;5068896;28;20041;-69
2022/08/26 02:36:25;;;;;;;11.07;7.07;;;21.30;95.30;;;;;;5074233;28;20067;-69
2022/08/26 02:38:51;;;;;;;11.52;7.28;;;21.20;95.30;;;;;;5069458;28;20550;-69
2022/08/26 02:41:17;;;;;;;9.52;7.40;;;21.20;95.30;;;;;;5068228;28;20044;-69
2022/08/26 02:43:43;;;;;;;9.27;6.80;;;21.20;95.40;;;;;;5067911;28;20060;-69
2022/08/26 02:46:08;;;;;;;11.57;7.30;;;21.30;95.50;;;;;;5071944;28;20743;-69
2022/08/26 02:48:34;;;;;;;8.65;7.00;;;21.20;95.50;;;;;;5073733;28;20069;-69
2022/08/26 02:51:00;;;;;;;9.68;7.32;;;21.20;95.60;;;;;;5069795;28;20032;-69
2022/08/26 02:53:27;;;;;;;11.85;7.32;;;21.20;95.60;;;;;;5072619;28;20084;-69
2022/08/26 02:55:53;;;;;;;10.57;6.93;;;21.20;95.60;;;;;;5070809;28;20060;-69
2022/08/26 02:58:19;;;;;;;9.68;7.18;;;21.20;95.60;;;;;;5068969;28;20032;-69
2022/08/26 03:00:46;;;;;;;12.48;7.63;;;21.20;95.70;;;;;;5065328;28;20060;-69
2022/08/26 03:03:14;;;;;;;11.52;7.38;;;21.20;95.60;;;;;;5063166;28;20558;-69
2022/08/26 03:05:41;;;;;;;12.63;7.50;;;21.20;95.60;;;;;;5077679;28;20877;-69
2022/08/26 03:08:10;;;;;;;11.43;7.70;;;21.20;95.60;;;;;;5070374;28;20028;-69
2022/08/26 03:10:37;;;;;;;11.43;7.20;;;21.20;95.60;;;;;;5070834;28;20024;-69
2022/08/26 03:13:02;;;;;;;12.13;7.40;;;21.20;95.70;;;;;;5067289;28;20086;-69
2022/08/26 03:15:31;;;;;;;12.82;7.40;;;21.20;95.90;;;;;;5074343;28;20127;-69
2022/08/26 03:17:56;;;;;;;10.38;7.18;;;21.20;95.80;;;;;;5071639;28;20024;-69
2022/08/26 03:20:23;;;;;;;10.10;7.00;;;21.20;95.50;;;;;;5073748;28;20921;-69
2022/08/26 03:22:52;;;;;;;8.23;7.00;;;21.20;95.30;;;;;;5074506;28;20488;-69
2022/08/26 03:25:18;;;;;;;13.07;7.55;;;21.20;95.20;;;;;;5071722;28;20047;-69
2022/08/26 03:27:44;;;;;;;9.82;7.28;;;21.20;95.10;;;;;;5070261;28;20020;-69
2022/08/26 03:32:56;;;;;;;;;;;21.20;95.10;;;;;;5067206;28;20036;-69
2022/08/26 03:35:24;;;;;;;10.52;7.10;;;21.20;95.10;;;;;;5067549;28;19947;-69
2022/08/26 03:37:50;;;;;;;11.07;7.63;;;21.20;95.30;;;;;;5075493;28;20776;-69
2022/08/26 03:40:17;;;;;;;8.35;7.00;;;21.20;95.50;;;;;;5063746;28;20123;-69
2022/08/26 03:42:43;;;;;;;13.48;7.97;;;21.20;95.60;;;;;;5070332;28;20030;-69
2022/08/26 03:45:10;;;;;;;16.88;8.48;;;21.20;95.60;;;;;;5070023;28;20112;-69
2022/08/26 03:47:38;;;;;;;13.48;8.27;;;21.20;95.60;;;;;;5077585;28;20026;-68
2022/08/26 03:50:05;;;;;;;9.68;7.13;;;21.10;95.60;;;;;;5072151;28;20029;-68
2022/08/26 03:52:31;;;;;;;12.93;8.45;;;21.10;95.70;;;;;;5072587;28;20408;-69
2022/08/26 03:54:57;;;;;;;13.57;7.70;;;21.10;95.80;;;;;;5067189;28;20047;-69
2022/08/26 03:57:22;;;;;;;10.63;7.63;;;21.10;95.70;;;;;;5064295;28;20670;-69
2022/08/26 03:59:48;;;;;;;11.45;7.45;;;21.10;95.50;;;;;;5062556;28;20033;-69
2022/08/26 04:02:14;;;;;;;13.95;8.48;;;21.10;95.40;;;;;;5070422;28;20040;-69
2022/08/26 04:04:40;;;;;;;10.90;8.30;;;21.10;95.40;;;;;;5070036;28;20008;-69
2022/08/26 04:07:06;;;;;;;13.15;8.40;;;21.00;95.30;;;;;;5067045;28;20025;-69
2022/08/26 04:09:31;;;;;;;12.75;8.15;;;21.00;95.40;;;;;;5070078;28;20589;-69
2022/08/26 04:11:57;;;;;;;10.85;7.25;;;21.00;95.50;;;;;;5066911;28;20910;-69
2022/08/26 04:14:25;;;;;;;12.98;7.28;;;21.00;95.50;;;;;;5069027;28;20036;-69
2022/08/26 04:16:52;;;;;;;13.20;7.85;;;20.90;95.60;;;;;;5064412;28;20032;-69
2022/08/26 04:19:19;;;;;;;8.70;7.10;;;20.90;95.60;;;;;;5069752;28;20036;-69
2022/08/26 04:21:47;;;;;;;12.30;8.13;;;20.90;95.50;;;;;;5069922;28;20100;-69
2022/08/26 04:24:14;;;;;;;14.55;7.50;;;20.90;95.60;;;;;;5068581;28;20583;-69
2022/08/26 04:26:41;;;;;;;13.20;8.10;;;20.90;95.70;;;;;;5067822;28;20510;-69
2022/08/26 04:29:19;;;;;;;20.08;8.43;;;20.90;95.70;;;;;;5068252;28;20030;-69
2022/08/26 04:31:46;;;;;;;13.15;8.35;;;20.90;95.70;;;;;;5072873;28;20024;-69
2022/08/26 04:34:13;;;;;;;13.73;7.60;;;20.90;95.30;;;;;;5066488;28;20043;-69
2022/08/26 04:36:39;;;;;;;10.07;7.60;;;20.90;95.40;;;;;;5064922;28;20039;-69
2022/08/26 04:39:06;;;;;;;10.52;6.97;;;20.90;95.40;;;;;;5066020;28;20115;-69
2022/08/26 04:41:32;;;;;;;10.98;7.47;;;20.90;95.40;;;;;;5071155;28;20113;-70
2022/08/26 04:43:58;;;;;;;8.35;7.20;;;20.90;95.40;;;;;;5066887;28;20139;-69
2022/08/26 04:46:24;;;;;;;14.43;7.35;;;20.90;95.60;;;;;;5073422;28;20893;-69
2022/08/26 04:48:52;;;;;;;11.98;8.15;;;20.90;95.70;;;;;;5064847;28;20028;-68
2022/08/26 04:51:27;;;;;;;13.00;8.27;;;20.90;96.00;;;;;;5067541;28;20039;-70
2022/08/26 04:53:57;;;;;;;16.50;8.77;;;20.90;96.10;;;;;;5062160;28;20040;-70
2022/08/26 04:56:29;;;;;;;11.52;8.77;;;21.00;96.20;;;;;;5067658;28;20040;-68
2022/08/26 04:58:55;;;;;;;15.95;8.65;;;21.00;96.40;;;;;;5068822;28;20730;-68
2022/08/26 05:01:21;;;;;;;12.60;8.63;;;21.10;96.40;;;;;;5079643;28;20772;-68
2022/08/26 05:03:47;;;;;;;11.60;8.10;;;21.20;96.40;;;;;;5071499;28;20055;-68
2022/08/26 05:06:14;;;;;;;9.57;8.27;;;21.20;96.40;;;;;;5065738;28;20017;-68
2022/08/26 05:08:40;;;;;;;11.10;8.43;;;21.20;96.30;;;;;;5076982;28;20103;-68
2022/08/26 05:11:06;;;;;;;12.90;8.25;;;21.30;96.30;;;;;;5061466;28;20159;-68
2022/08/26 05:13:34;;;;;;;11.45;9.20;;;21.30;96.30;;;;;;5061753;28;20131;-68
2022/08/26 05:16:05;;;;;;;13.15;7.82;;;21.40;96.30;;;;;;5064768;28;20086;-68
2022/08/26 05:18:32;;;;;;;9.75;8.27;;;21.40;96.30;;;;;;5067323;28;20024;-68
2022/08/26 05:21:00;;;;;;;9.05;7.72;;;21.40;96.20;;;;;;5067535;28;20051;-70
2022/08/26 05:23:26;;;;;;;12.57;7.82;;;21.50;96.30;;;;;;5069093;28;20039;-68
2022/08/26 05:25:54;;;;;;;11.77;8.25;;;21.50;96.30;;;;;;5064352;28;20051;-69
2022/08/26 05:28:20;;;;;;;11.52;9.05;;;21.60;96.40;;;;;;5064108;28;20045;-69
2022/08/26 05:30:47;;;;;;;12.60;8.65;;;21.60;96.40;;;;;;5062063;28;20039;-68
2022/08/26 05:33:15;;;;;;;11.15;8.98;;;21.60;96.40;;;;;;5060564;28;20563;-69
2022/08/26 05:35:42;;;;;;;13.02;9.07;;;21.70;96.40;;;;;;5067900;28;20114;-68
2022/08/26 05:38:11;;;;;;;11.57;8.52;;;21.70;96.40;;;;;;5068393;28;20040;-68
2022/08/26 05:40:43;;;;;;;16.27;9.93;;;21.80;96.40;;;;;;5067672;28;20028;-70
2022/08/26 05:43:10;;;;;;;18.17;9.95;;;21.90;96.40;;;;;;5067030;28;20067;-69
2022/08/26 05:45:37;;;;;;;12.48;9.40;;;21.90;96.40;;;;;;5066874;28;20139;-67
2022/08/26 05:48:06;;;;;;;15.25;9.85;;;22.00;96.40;;;;;;5071245;28;20044;-68
2022/08/26 05:50:41;;;;;;;12.30;9.20;;;22.10;96.40;;;;;;5083337;28;20028;-68
2022/08/26 05:53:09;;;;;;;12.65;8.90;;;22.10;96.30;;;;;;5073096;28;20100;-68
2022/08/26 05:55:42;;;;;;;16.73;9.77;;;22.20;96.30;;;;;;5083702;28;20032;-68
2022/08/26 05:58:08;;;;;;;12.35;8.82;;;22.30;96.20;;;;;;5078612;28;20494;-70
2022/08/26 06:00:34;;;;;;;11.38;8.07;;;22.40;96.20;;;;;;5075050;28;20032;-70
2022/08/26 06:02:59;;;;;;;14.23;8.55;;;22.50;96.00;;;;;;5083839;28;20442;-68
2022/08/26 06:05:25;;;;;;;13.65;9.27;;;22.70;95.90;;;;;;5082357;28;20032;-70
2022/08/26 06:10:49;;;;;;;13.50;8.65;;;22.80;95.40;;;;;;5075650;28;20043;-67
2022/08/26 06:13:17;;;;;;;13.13;8.55;;;22.90;95.30;;;;;;5071293;28;20032;-69
2022/08/26 06:15:48;;;;;;;13.55;8.82;;;23.00;95.00;;;;;;5072954;28;20028;-69
2022/08/26 06:18:18;;;;;;;12.95;9.18;;;23.10;94.60;;;;;;5071316;28;20119;-70
2022/08/26 06:20:45;;;;;;;11.73;9.05;;;23.20;94.40;;;;;;5068576;28;20025;-70
2022/08/26 06:25:58;;;;;;;13.02;8.95;;;23.40;93.90;;;;;;5065473;28;20032;-68
2022/08/26 06:28:25;;;;;;;15.93;8.65;;;23.50;94.00;;;;;;5064681;28;20503;-68
2022/08/26 06:30:51;;;;;;;16.08;8.65;;;23.60;93.40;;;;;;5063205;28;20033;-68
2022/08/26 06:33:17;;;;;;;18.60;9.07;;;23.70;93.10;;;;;;5072374;28;20060;-68
2022/08/26 06:35:45;;;;;;;14.48;8.35;;;23.80;93.00;;;;;;5077315;28;20177;-70
2022/08/26 06:38:12;;;;;;;12.23;8.25;;;23.90;92.90;;;;;;5076182;28;20040;-70
2022/08/26 06:40:44;;;;;;;13.43;7.88;;;23.90;92.60;;;;;;5069749;28;20035;-68
2022/08/26 06:43:11;;;;;;;17.90;8.90;;;24.00;92.60;;;;;;5070303;28;20066;-68
2022/08/26 06:45:38;;;;;;;17.55;9.00;;;24.00;92.30;;;;;;5077695;28;20024;-68
2022/08/26 06:48:05;;;;;;;19.92;9.32;;;24.10;92.20;;;;;;5073512;28;20029;-69
2022/08/26 06:50:32;;;;;;;17.75;8.93;;;24.20;92.00;;;;;;5072714;28;20429;-70
2022/08/26 06:52:58;;;;;;;17.17;8.60;;;24.30;91.90;;;;;;5071534;28;20032;-69
2022/08/26 06:55:24;;;;;;;19.75;9.07;;;24.30;91.70;;;;;;5078522;28;20032;-71
2022/08/26 06:57:50;;;;;;;19.08;8.40;;;24.30;91.60;;;;;;5072059;28;20489;-70
2022/08/26 07:00:17;;;;;;;14.65;7.78;;;24.30;91.40;;;;;;5071559;28;20040;-68
2022/08/26 07:02:43;;;;;;;21.77;9.05;;;24.50;91.60;;;;;;5068856;28;20036;-68
2022/08/26 07:05:08;;;;;;;23.05;9.57;;;24.60;91.30;;;;;;5065988;28;20058;-68
2022/08/26 07:07:34;;;;;;;18.25;8.18;;;24.70;90.60;;;;;;5068420;28;20472;-68
2022/08/26 07:10:00;;;;;;;14.68;8.15;;;24.70;90.70;;;;;;5075476;28;20040;-68
2022/08/26 07:12:26;;;;;;;18.58;8.40;;;24.80;90.70;;;;;;5072961;28;20028;-68
2022/08/26 07:14:52;;;;;;;15.20;8.07;;;24.90;90.80;;;;;;5069558;28;20123;-68
2022/08/26 07:17:18;;;;;;;21.63;9.02;;;25.00;90.70;;;;;;5069515;28;20054;-69
2022/08/26 07:19:45;;;;;;;20.45;9.23;;;25.10;90.40;;;;;;5067856;28;20098;-69
2022/08/26 07:22:11;;;;;;;12.40;7.80;;;25.30;90.10;;;;;;5066287;28;20480;-69
2022/08/26 07:24:41;;;;;;;18.10;7.63;;;25.30;90.00;;;;;;5068938;28;20058;-69
2022/08/26 07:27:13;;;;;;;22.88;8.45;;;25.40;89.00;;;;;;5067154;28;20036;-68
2022/08/26 07:29:41;;;;;;;22.10;8.00;;;25.50;88.60;;;;;;5073035;28;20579;-69
2022/08/26 07:32:08;;;;;;;19.33;8.00;;;25.70;88.60;;;;;;5070261;28;20040;-69
2022/08/26 07:34:36;;;;;;;21.42;7.93;;;25.80;86.80;;;;;;5070637;28;20099;-69
2022/08/26 07:37:02;;;;;;;21.13;7.35;;;26.00;86.40;;;;;;5067348;28;20105;-68
2022/08/26 07:39:29;;;;;;;17.05;7.55;;;26.10;86.00;;;;;;5071851;28;20034;-68
2022/08/26 07:41:55;;;;;;;20.15;7.28;;;26.20;85.60;;;;;;5064708;28;20037;-69
2022/08/26 07:44:22;;;;;;;20.98;7.70;;;26.30;85.80;;;;;;5066797;28;20493;-68
2022/08/26 07:46:49;;;;;;;22.45;7.50;;;26.30;85.80;;;;;;5066983;28;20028;-68
2022/08/26 07:49:16;;;;;;;19.60;7.88;;;26.30;84.60;;;;;;5071307;28;20036;-69
2022/08/26 07:51:42;;;;;;;25.45;8.18;;;26.50;84.80;;;;;;5070006;28;20028;-69
2022/08/26 07:54:08;;;;;;;22.40;7.18;;;26.50;84.20;;;;;;5068120;28;20043;-69
2022/08/26 07:56:34;;;;;;;22.92;8.73;;;26.50;84.50;;;;;;5067921;28;20031;-68
2022/08/26 07:59:00;;;;;;;25.02;7.80;;;26.60;84.00;;;;;;5065538;28;20028;-68
2022/08/26 08:01:28;;;;;;;18.02;7.18;;;26.70;84.20;;;;;;5067321;28;20031;-68
2022/08/26 08:03:55;;;;;;;19.67;7.28;;;26.70;83.20;;;;;;5067909;28;20041;-68
2022/08/26 08:06:24;;;;;;;24.75;6.70;;;26.70;83.10;;;;;;5069275;28;20116;-69
2022/08/26 08:08:50;;;;;;;19.30;6.97;;;26.80;83.10;;;;;;5069803;28;20027;-69
2022/08/26 08:11:19;;;;;;;21.23;7.07;;;26.90;83.40;;;;;;5069041;28;20097;-69
2022/08/26 08:13:45;;;;;;;21.50;7.00;;;26.90;82.50;;;;;;5068590;28;20123;-69
2022/08/26 08:16:11;;;;;;;20.20;7.40;;;27.00;82.80;;;;;;5066078;28;20040;-69
2022/08/26 08:18:37;;;;;;;17.02;6.80;;;27.10;82.80;;;;;;5072555;28;20446;-69
2022/08/26 08:21:03;;;;;;;16.80;6.80;;;27.20;81.60;;;;;;5078605;28;20039;-68
2022/08/26 08:23:30;;;;;;;16.20;6.80;;;27.40;81.50;;;;;;5081546;28;20024;-69
2022/08/26 08:26:00;;;;;;;17.13;6.45;;;27.50;81.50;;;;;;5080803;28;20800;-69
2022/08/26 08:28:27;;;;;;;17.77;6.78;;;27.60;79.80;;;;;;5070039;28;20032;-69
2022/08/26 08:30:52;;;;;;;18.08;6.43;;;27.70;79.90;;;;;;5067411;28;20127;-69
2022/08/26 08:33:18;;;;;;;13.75;5.50;;;27.80;80.30;;;;;;5067695;28;20147;-69
2022/08/26 08:35:44;;;;;;;19.33;6.25;;;27.90;78.40;;;;;;5065105;28;20036;-69
2022/08/26 08:38:10;;;;;;;15.68;6.53;;;27.90;78.20;;;;;;5071574;28;20460;-69
2022/08/26 08:40:39;;;;;;;14.43;6.47;;;27.90;78.60;;;;;;5062439;28;20139;-69
2022/08/26 08:43:08;;;;;;;26.38;6.00;;;27.90;78.80;;;;;;5061157;28;20044;-70
2022/08/26 08:45:38;;;;;;;25.70;6.05;;;28.00;78.70;;;;;;5068264;28;20032;-69
2022/08/26 08:48:18;;;;;;;23.27;6.72;;;28.20;78.80;;;;;;5072651;28;20063;-69
2022/08/26 08:50:50;;;;;;;17.08;6.07;;;28.30;77.80;;;;;;5066828;28;20037;-70
2022/08/26 08:53:38;;;;;;;16.73;6.10;;;28.20;77.30;;;;;;5067215;28;20065;-70
2022/08/26 08:56:03;;;;;;;21.65;5.85;;;28.20;78.20;;;;;;5063972;28;20025;-70
2022/08/26 08:59:04;;;;;;;15.95;6.30;;;28.20;78.10;;;;;;5063399;28;20028;-70
2022/08/26 09:01:39;;;;;;;22.73;7.10;;;28.20;78.00;;;;;;5066562;28;20036;-70
2022/08/26 09:04:59;;;;;;;26.08;6.63;;;28.40;77.60;;;;;;5069242;28;20125;-69
2022/08/26 09:07:39;;;;;;;18.73;5.95;;;28.50;76.50;;;;;;5040191;28;20032;-70
2022/08/26 09:10:21;;;;;;;19.38;5.85;;;28.50;76.60;;;;;;5055693;28;20055;-70
2022/08/26 09:12:48;;;;;;;28.55;6.57;;;28.60;76.50;;;;;;5059924;28;20083;-70
2022/08/26 09:16:08;;;;;;;25.00;5.68;;;28.70;76.20;;;;;;5067323;28;20075;-69
2022/08/26 09:19:00;;;;;;;17.70;4.97;;;28.80;75.80;;;;;;5059724;28;20044;-70
2022/08/26 09:21:26;;;;;;;15.82;5.43;;;29.00;75.20;;;;;;5062022;28;20077;-69
2022/08/26 09:23:54;;;;;;;19.50;6.07;;;29.10;74.60;;;;;;5067800;28;20040;-69
2022/08/26 09:26:43;;;;;;;27.98;5.65;;;29.10;75.00;;;;;;5068542;28;20036;-70
2022/08/26 09:29:23;;;;;;;26.88;6.50;;;29.20;74.60;;;;;;5065476;28;20044;-70
2022/08/26 09:31:49;;;;;;;18.73;5.75;;;29.40;73.20;;;;;;5063567;28;20035;-69
2022/08/26 09:34:24;;;;;;;19.77;5.90;;;29.40;73.20;;;;;;5064163;28;20491;-70
2022/08/26 09:36:53;;;;;;;18.77;5.82;;;29.20;73.50;;;;;;5064475;28;20060;-69
2022/08/26 09:39:22;;;;;;;17.92;5.78;;;29.00;73.50;;;;;;5064175;28;20779;-69
2022/08/26 09:42:21;;;;;;;21.63;6.07;;;28.90;73.80;;;;;;5068908;28;20030;-69
2022/08/26 09:45:04;;;;;;;15.25;5.68;;;28.70;74.30;;;;;;5074920;28;20061;-70
2022/08/26 09:47:40;;;;;;;20.00;5.28;;;28.60;74.70;;;;;;5066330;28;20103;-69
2022/08/26 09:50:18;;;;;;;16.92;5.05;;;28.60;74.60;;;;;;5064371;28;20028;-69
2022/08/26 09:52:44;;;;;;;17.80;4.90;;;28.50;74.50;;;;;;5062062;28;20036;-69
2022/08/26 09:55:20;;;;;;;25.25;5.40;;;28.50;74.50;;;;;;5070103;28;20042;-69
2022/08/26 09:57:54;;;;;;;28.58;5.97;;;28.40;76.20;;;;;;5059188;28;20036;-69
2022/08/26 10:00:32;;;;;;;15.60;5.97;;;28.20;80.00;;;;;;5073480;28;20142;-69
2022/08/26 10:03:04;;;;;;;18.98;5.63;;;27.90;82.70;;;;;;5069178;28;20051;-69
2022/08/26 10:05:57;;;;;;;20.13;6.18;;;27.80;84.50;;;;;;5068087;28;20113;-69
2022/08/26 10:08:37;;;;;;;20.08;5.75;;;27.70;86.40;;;;;;5063202;28;20036;-69
2022/08/26 10:11:09;;;;;;;15.07;6.15;;;27.60;87.50;;;;;;5067984;28;20673;-70
2022/08/26 10:13:41;;;;;;;15.65;6.10;;;27.60;87.20;;;;;;5063765;28;20077;-69
2022/08/26 10:16:17;;;;;;;13.63;5.78;;;27.50;87.10;;;;;;5060679;28;20047;-69
2022/08/26 10:18:55;;;;;;;11.95;5.70;;;27.40;87.70;;;;;;5074559;28;20058;-69
2022/08/26 10:21:47;;;;;;;11.27;5.60;;;27.30;87.80;;;;;;5072773;28;20710;-70
2022/08/26 10:24:20;;;;;;;11.80;5.70;;;27.20;88.70;;;;;;5075554;28;20047;-69
2022/08/26 10:27:01;;;;;;;15.40;5.53;;;27.00;88.60;;;;;;5075523;28;20024;-69
2022/08/26 10:29:41;;;;;;;14.45;5.43;;;26.90;89.10;;;;;;5078746;28;20028;-68
2022/08/26 10:32:34;;;;;;;12.30;5.38;;;26.80;88.90;;;;;;5066907;28;20178;-69
2022/08/26 10:35:00;;;;;;;19.45;5.30;;;26.60;84.70;;;;;;5073112;28;20040;-68
2022/08/26 10:37:35;;;;;;;16.17;5.53;;;26.40;83.40;;;;;;5074845;28;20024;-68
2022/08/26 10:40:19;;;;;;;20.33;6.57;;;26.00;85.30;;;;;;5079145;28;20025;-69
2022/08/26 10:43:14;;;;;;;19.92;6.55;;;25.80;88.40;;;;;;5068238;28;20664;-69
2022/08/26 10:45:52;;;;;;;25.95;7.72;;;25.60;90.10;;;;;;5067180;28;20112;-69
2022/08/26 10:48:35;;;;;;;27.95;8.48;;;25.10;91.30;;;;;;5070362;28;20064;-71
2022/08/26 10:51:02;;;;;;;21.35;8.48;;;24.80;92.50;;;;;;5066032;28;20541;-70
2022/08/26 10:53:51;;;;;;;15.73;7.22;;;24.60;93.20;;;;;;5064162;28;20028;-70
2022/08/26 10:56:41;;;;;;;14.30;6.93;;;24.40;93.90;;;;;;5068915;28;20695;-70
2022/08/26 10:59:20;;;;;;;15.00;6.43;;;24.40;94.80;;;;;;5070136;28;20040;-70
2022/08/26 11:02:24;;;;;;;9.10;4.75;;;24.40;95.40;;;;;;5074370;28;20217;-70
2022/08/26 11:04:53;;;;;;;10.75;4.88;;;24.50;94.90;;;;;;5070264;28;20033;-69
2022/08/26 11:07:38;;;;;;;12.30;4.90;;;24.40;94.70;;;;;;5072505;28;20142;-70
2022/08/26 11:10:11;;;;;;;7.18;3.78;;;24.40;94.90;;;;;;5065742;28;20127;-70
2022/08/26 11:12:36;;;;;;;8.40;4.35;;;24.40;94.10;;;;;;5064256;28;20481;-69
2022/08/26 11:15:09;;;;;;;5.93;3.92;;;24.40;94.50;;;;;;5071945;28;20114;-69
2022/08/26 11:17:44;;;;;;;6.28;3.30;;;24.40;94.80;;;;;;5079601;28;20032;-70
2022/08/26 11:20:22;;;;;;;4.35;3.50;;;24.40;94.80;;;;;;5077170;28;20032;-69
2022/08/26 11:22:53;;;;;;;5.13;3.40;;;24.40;94.60;;;;;;5078295;28;20028;-70
2022/08/26 11:25:24;;;;;;;6.45;3.63;;;24.50;94.80;;;;;;5069271;28;20040;-69
2022/08/26 11:27:58;;;;;;;3.97;3.20;;;24.40;94.60;;;;;;5071979;28;20025;-69
2022/08/26 11:30:24;;;;;;;6.65;4.38;;;24.40;94.70;;;;;;5071758;28;20071;-69
2022/08/26 11:32:56;;;;;;;6.03;4.30;;;24.40;94.90;;;;;;5069873;28;20119;-69
2022/08/26 11:35:24;;;;;;;10.27;5.10;;;24.40;95.10;;;;;;5072856;28;20040;-69
2022/08/26 11:37:53;;;;;;;24.60;7.63;;;24.40;95.30;;;;;;5070542;28;20540;-71
2022/08/26 11:40:53;;;;;;;47.40;8.70;;;24.20;95.40;;;;;;5070706;28;20044;-72
2022/08/26 11:43:24;;;;;;;17.67;6.60;;;23.90;96.20;;;;;;5068628;28;20052;-72
2022/08/26 11:46:06;;;;;;;17.42;7.43;;;23.70;96.50;;;;;;5065956;28;20460;-72
2022/08/26 11:48:35;;;;;;;15.60;7.82;;;23.50;96.90;;;;;;5079956;28;20544;-72
2022/08/26 11:51:14;;;;;;;19.70;8.38;;;23.50;97.30;;;;;;5067528;28;20039;-72
2022/08/26 11:53:43;;;;;;;13.50;7.07;;;23.50;97.50;;;;;;5074609;28;20039;-72
2022/08/26 11:56:31;;;;;;;16.13;7.28;;;23.50;97.60;;;;;;5069770;28;20668;-72
2022/08/26 11:58:59;;;;;;;21.83;7.95;;;23.40;97.60;;;;;;5074072;28;20496;-72
2022/08/26 12:01:34;;;;;;;29.92;10.77;;;23.40;97.60;;;;;;5069311;28;20032;-72
2022/08/26 12:04:03;;;;;;;36.38;10.35;;;23.30;97.60;;;;;;5064806;28;20101;-72
2022/08/26 12:06:33;;;;;;;21.55;9.18;;;23.30;97.40;;;;;;5071438;28;20089;-72
2022/08/26 12:09:04;;;;;;;16.55;7.32;;;23.20;97.50;;;;;;5081792;28;20185;-73
2022/08/26 12:11:32;;;;;;;15.23;6.70;;;23.10;97.30;;;;;;5082230;28;20055;-73
2022/08/26 12:14:07;;;;;;;13.55;6.80;;;23.00;97.40;;;;;;5081400;28;20105;-73
2022/08/26 12:16:35;;;;;;;12.90;6.88;;;22.90;97.60;;;;;;5069337;28;20040;-72
2022/08/26 12:19:25;;;;;;;14.15;7.60;;;22.80;98.10;;;;;;5072701;28;20806;-72
2022/08/26 12:21:56;;;;;;;11.50;7.30;;;22.80;98.50;;;;;;5067106;28;20036;-72
2022/08/26 12:24:22;;;;;;;14.45;8.10;;;22.80;98.70;;;;;;5071158;28;20041;-72
2022/08/26 12:26:48;;;;;;;9.07;6.97;;;22.80;98.80;;;;;;5065817;28;20427;-72
2022/08/26 12:29:26;;;;;;;10.77;6.55;;;22.80;98.70;;;;;;5063446;28;20028;-72
2022/08/26 12:32:11;;;;;;;10.25;6.40;;;22.90;98.50;;;;;;5069349;28;20805;-72
2022/08/26 12:34:41;;;;;;;12.32;6.70;;;22.90;98.20;;;;;;5069779;28;20027;-72
2022/08/26 12:37:10;;;;;;;8.27;5.57;;;22.90;98.10;;;;;;5076407;28;20036;-72
2022/08/26 12:39:40;;;;;;;12.85;7.47;;;22.80;98.30;;;;;;5068430;28;20038;-72
2022/08/26 12:42:11;;;;;;;14.52;7.50;;;22.80;98.50;;;;;;5063699;28;20043;-72
2022/08/26 12:44:46;;;;;;;10.60;7.65;;;22.70;98.50;;;;;;5063639;28;20111;-72
2022/08/26 12:47:32;;;;;;;13.20;7.53;;;22.60;98.60;;;;;;5062354;28;20405;-73
2022/08/26 12:50:17;;;;;;;17.13;7.90;;;22.60;98.60;;;;;;5080914;28;20693;-75
2022/08/26 12:53:05;;;;;;;16.75;7.72;;;22.50;98.70;;;;;;5074444;28;20043;-75
2022/08/26 12:55:44;;;;;;;22.67;9.48;;;22.40;99.10;;;;;;5080375;28;20032;-76
2022/08/26 12:58:33;;;;;;;16.95;8.43;;;22.30;98.70;;;;;;5095305;28;20043;-78
2022/08/26 13:01:05;;;;;;;26.33;9.40;;;22.10;99.10;;;;;;5088624;28;20044;-78
2022/08/26 13:03:36;;;;;;;15.95;8.90;;;22.10;99.30;;;;;;5064239;28;20394;-77
2022/08/26 13:06:28;;;;;;;14.75;9.05;;;22.00;99.40;;;;;;5074700;28;20281;-78